createdAt,value
2018-06-04T00:01:36.857Z,20.50
2018-06-04T00:04:05.381Z,20.50
2018-06-04T00:06:34.120Z,20.40
2018-06-04T00:09:02.571Z,20.30
2018-06-04T00:11:31.095Z,20.30
2018-06-04T00:13:59.783Z,20.30
2018-06-04T00:16:28.271Z,20.40
2018-06-04T00:18:56.749Z,20.40
2018-06-04T00:21:25.212Z,20.50
2018-06-04T00:23:53.826Z,20.40
2018-06-04T00:26:22.234Z,20.30
2018-06-04T00:28:50.761Z,20.30
2018-06-04T00:33:47.781Z,20.20
2018-06-04T00:36:16.322Z,20.10
2018-06-04T00:38:44.826Z,20.20
2018-06-04T00:41:13.374Z,20.10
2018-06-04T00:43:41.904Z,20.00
2018-06-04T00:48:38.438Z,20.10
2018-06-04T00:51:07.013Z,20.00
2018-06-04T00:53:35.458Z,20.10
2018-06-04T00:56:15.301Z,20.10
2018-06-04T00:58:43.830Z,20.00
2018-06-04T01:01:12.410Z,19.90
2018-06-04T01:03:40.879Z,19.90
2018-06-04T01:06:09.478Z,19.90
2018-06-04T01:08:37.960Z,19.80
2018-06-04T01:11:07.501Z,19.70
2018-06-04T01:16:04.190Z,19.80
2018-06-04T01:18:32.646Z,19.80
2018-06-04T01:21:01.117Z,19.70
2018-06-04T01:23:29.580Z,19.60
2018-06-04T01:25:58.037Z,19.50
2018-06-04T01:30:54.611Z,19.50
2018-06-04T01:33:23.073Z,19.50
2018-06-04T01:38:19.581Z,19.50
2018-06-04T01:40:48.024Z,19.30
2018-06-04T01:43:16.488Z,19.30
2018-06-04T01:48:13.052Z,19.20
2018-06-04T01:53:09.638Z,19.20
2018-06-04T01:55:38.140Z,19.20
2018-06-04T01:58:06.549Z,19.20
2018-06-04T02:00:34.977Z,19.10
2018-06-04T02:05:31.855Z,19.10
2018-06-04T02:08:00.294Z,19.00
2018-06-04T02:10:28.761Z,19.00
2018-06-04T02:12:57.194Z,18.90
2018-06-04T02:15:25.597Z,18.90
2018-06-04T02:17:54.053Z,18.90
2018-06-04T02:20:22.561Z,18.90
2018-06-04T02:25:19.141Z,18.90
2018-06-04T02:27:47.582Z,18.80
2018-06-04T02:30:16.688Z,18.80
2018-06-04T02:32:45.170Z,18.80
2018-06-04T02:35:13.599Z,18.60
2018-06-04T02:37:41.999Z,18.50
2018-06-04T02:40:10.542Z,18.50
2018-06-04T02:45:07.099Z,18.60
2018-06-04T02:50:04.007Z,18.60
2018-06-04T02:52:32.329Z,18.60
2018-06-04T02:55:00.802Z,18.60
2018-06-04T02:57:29.225Z,18.50
2018-06-04T03:02:25.809Z,18.50
2018-06-04T03:07:22.659Z,18.40
2018-06-04T03:09:51.181Z,18.40
2018-06-04T03:12:19.648Z,18.40
2018-06-04T03:17:16.205Z,18.40
2018-06-04T03:19:44.681Z,18.40
2018-06-04T03:22:13.140Z,18.40
2018-06-04T03:24:41.649Z,18.30
2018-06-04T03:27:10.075Z,18.30
2018-06-04T03:29:38.505Z,18.40
2018-06-04T03:32:06.964Z,18.40
2018-06-04T03:34:35.397Z,18.30
2018-06-04T03:44:28.337Z,18.10
2018-06-04T03:46:56.789Z,18.20
2018-06-04T03:49:25.231Z,18.20
2018-06-04T03:51:53.677Z,18.20
2018-06-04T03:56:50.291Z,18.20
2018-06-04T03:59:18.733Z,18.20
2018-06-04T04:01:47.221Z,18.10
2018-06-04T04:06:44.008Z,18.30
2018-06-04T04:09:12.529Z,18.30
2018-06-04T04:11:40.929Z,18.20
2018-06-04T04:14:09.993Z,18.30
2018-06-04T04:16:39.670Z,18.20
2018-06-04T04:19:08.094Z,18.30
2018-06-04T04:21:36.530Z,18.40
2018-06-04T04:24:05.024Z,18.40
2018-06-04T04:29:01.585Z,18.40
2018-06-04T04:36:26.281Z,18.60
2018-06-04T04:38:54.706Z,18.60
2018-06-04T04:43:51.277Z,18.70
2018-06-04T04:46:19.729Z,18.80
2018-06-04T04:48:49.145Z,18.70
2018-06-04T04:51:17.590Z,18.80
2018-06-04T04:53:46.074Z,18.80
2018-06-04T04:56:14.556Z,18.90
2018-06-04T04:58:43.065Z,19.00
2018-06-04T05:01:11.525Z,19.00
2018-06-04T05:03:40.026Z,19.10
2018-06-04T05:06:08.493Z,19.10
2018-06-04T05:08:37.239Z,19.20
2018-06-04T05:11:05.679Z,19.30
2018-06-04T05:13:34.175Z,19.40
2018-06-04T05:16:02.647Z,19.50
2018-06-04T05:18:31.145Z,19.70
2018-06-04T05:20:59.694Z,19.80
2018-06-04T05:23:28.141Z,20.00
2018-06-04T05:25:56.575Z,20.10
2018-06-04T05:28:24.986Z,20.10
2018-06-04T05:30:53.455Z,20.40
2018-06-04T05:33:21.894Z,20.50
2018-06-04T05:35:50.325Z,20.50
2018-06-04T05:38:18.757Z,20.70
2018-06-04T05:40:47.746Z,20.70
2018-06-04T05:43:16.193Z,20.90
2018-06-04T05:45:44.645Z,21.00
2018-06-04T05:50:41.313Z,21.20
2018-06-04T05:53:09.794Z,21.40
2018-06-04T05:58:06.345Z,21.70
2018-06-04T06:00:34.821Z,21.70
2018-06-04T06:03:03.266Z,21.90
2018-06-04T06:05:31.729Z,22.10
2018-06-04T06:08:00.202Z,22.30
2018-06-04T06:10:28.899Z,22.30
2018-06-04T06:15:25.484Z,22.60
2018-06-04T06:17:53.932Z,22.90
2018-06-04T06:20:22.458Z,22.90
2018-06-04T06:22:50.893Z,23.10
2018-06-04T06:25:19.304Z,23.40
2018-06-04T06:27:47.773Z,23.60
2018-06-04T06:32:44.473Z,24.10
2018-06-04T06:35:12.913Z,24.50
2018-06-04T06:37:41.375Z,24.80
2018-06-04T06:40:09.777Z,25.20
2018-06-04T06:42:38.185Z,25.60
2018-06-04T06:45:07.130Z,26.10
2018-06-04T06:47:35.544Z,26.50
2018-06-04T06:50:04.354Z,26.90
2018-06-04T06:52:32.814Z,27.00
2018-06-04T06:55:02.152Z,27.40
2018-06-04T06:57:30.593Z,27.90
2018-06-04T06:59:59.038Z,28.90
2018-06-04T07:02:27.467Z,29.50
2018-06-04T07:04:56.002Z,30.20
2018-06-04T07:07:24.902Z,30.50
2018-06-04T07:09:53.948Z,31.40
2018-06-04T07:12:22.658Z,31.20
2018-06-04T07:14:51.291Z,32.10
2018-06-04T07:17:19.858Z,32.20
2018-06-04T07:19:48.633Z,32.20
2018-06-04T07:22:17.164Z,32.90
2018-06-04T07:24:45.602Z,33.40
2018-06-04T07:27:14.246Z,33.50
2018-06-04T07:29:42.960Z,32.60
2018-06-04T07:32:11.567Z,33.60
2018-06-04T07:37:09.372Z,34.60
2018-06-04T07:39:39.731Z,34.60
2018-06-04T07:42:09.485Z,34.40
2018-06-04T07:44:38.644Z,34.60
2018-06-04T07:47:08.460Z,34.10
2018-06-04T07:49:37.408Z,34.70
2018-06-04T07:54:34.988Z,35.00
2018-06-04T07:57:04.341Z,36.30
2018-06-04T07:59:33.615Z,36.80
2018-06-04T08:02:03.272Z,37.60
2018-06-04T08:04:32.987Z,37.40
2018-06-04T08:07:02.406Z,36.60
2018-06-04T08:09:32.024Z,36.70
2018-06-04T08:14:30.966Z,37.80
2018-06-04T08:16:59.995Z,37.40
2018-06-04T08:21:56.594Z,35.20
2018-06-04T08:24:25.089Z,33.50
2018-06-04T08:26:53.545Z,33.70
2018-06-04T08:29:22.052Z,34.80
2018-06-04T08:31:50.437Z,35.40
2018-06-04T08:34:19.151Z,34.00
2018-06-04T08:36:47.578Z,32.80
2018-06-04T08:39:16.010Z,31.60
2018-06-04T08:41:44.539Z,31.00
2018-06-04T08:44:13.071Z,30.30
2018-06-04T08:46:41.532Z,29.60
2018-06-04T08:49:10.086Z,28.90
2018-06-04T08:51:38.516Z,29.80
2018-06-04T08:54:07.017Z,31.40
2018-06-04T08:56:35.516Z,33.20
2018-06-04T08:59:03.982Z,33.90
2018-06-04T09:01:32.598Z,32.30
2018-06-04T09:04:01.134Z,31.30
2018-06-04T09:06:29.569Z,32.80
2018-06-04T09:08:58.024Z,34.70
2018-06-04T09:11:26.535Z,36.30
2018-06-04T09:13:55.658Z,38.30
2018-06-04T09:16:24.432Z,39.70
2018-06-04T09:18:52.966Z,39.70
2018-06-04T09:21:21.386Z,40.30
2018-06-04T09:23:49.797Z,39.60
2018-06-04T09:26:18.505Z,41.80
2018-06-04T09:28:46.940Z,42.50
2018-06-04T09:31:15.346Z,42.60
2018-06-04T09:33:43.803Z,41.60
2018-06-04T09:36:12.308Z,42.90
2018-06-04T09:38:40.759Z,43.70
2018-06-04T09:41:09.230Z,43.30
2018-06-04T09:43:37.669Z,43.60
2018-06-04T09:46:06.177Z,44.10
2018-06-04T09:48:34.657Z,44.60
2018-06-04T09:51:03.149Z,43.70
2018-06-04T09:55:59.737Z,43.80
2018-06-04T09:58:28.207Z,44.20
2018-06-04T10:00:56.759Z,45.20
2018-06-04T10:03:25.280Z,44.40
2018-06-04T10:08:22.045Z,43.60
2018-06-04T10:13:18.676Z,42.50
2018-06-04T10:15:47.194Z,43.20
2018-06-04T10:18:15.921Z,44.20
2018-06-04T10:20:44.417Z,43.60
2018-06-04T10:23:12.880Z,43.70
2018-06-04T10:25:41.329Z,43.50
2018-06-04T10:28:09.769Z,44.70
2018-06-04T10:30:38.251Z,45.50
2018-06-04T10:33:06.836Z,46.00
2018-06-04T10:35:35.265Z,46.60
2018-06-04T10:38:03.737Z,46.00
2018-06-04T10:40:32.248Z,46.80
2018-06-04T10:43:00.717Z,46.40
2018-06-04T10:45:29.146Z,45.90
2018-06-04T10:47:57.565Z,47.10
2018-06-04T10:50:26.140Z,46.30
2018-06-04T10:52:54.558Z,47.20
2018-06-04T10:55:23.107Z,46.60
2018-06-04T10:57:52.616Z,47.60
2018-06-04T11:00:21.145Z,47.60
2018-06-04T11:02:49.572Z,47.30
2018-06-04T11:07:46.149Z,45.30
2018-06-04T11:10:14.669Z,45.90
2018-06-04T11:12:43.072Z,47.00
2018-06-04T11:15:11.561Z,47.70
2018-06-04T11:17:40.160Z,47.20
2018-06-04T11:20:08.731Z,46.90
2018-06-04T11:25:05.821Z,46.40
2018-06-04T11:30:02.374Z,47.90
2018-06-04T11:32:30.821Z,47.30
2018-06-04T11:34:59.239Z,45.50
2018-06-04T11:37:27.673Z,45.10
2018-06-04T11:39:56.136Z,46.40
2018-06-04T11:47:20.877Z,46.10
2018-06-04T11:49:49.294Z,45.60
2018-06-04T11:52:17.714Z,44.10
2018-06-04T11:54:46.433Z,42.90
2018-06-04T11:59:43.069Z,40.70
2018-06-04T12:02:11.519Z,41.90
2018-06-04T12:04:39.971Z,41.20
2018-06-04T12:07:08.389Z,42.60
2018-06-04T12:09:36.826Z,45.00
2018-06-04T12:14:33.456Z,45.90
2018-06-04T12:17:01.889Z,47.30
2018-06-04T12:19:30.312Z,48.70
2018-06-04T12:21:58.960Z,49.10
2018-06-04T12:26:55.649Z,48.80
2018-06-04T12:29:24.100Z,47.00
2018-06-04T12:34:23.864Z,40.30
2018-06-04T12:36:52.313Z,38.30
2018-06-04T12:39:20.745Z,36.80
2018-06-04T12:41:49.197Z,37.20
2018-06-04T12:44:17.607Z,37.90
2018-06-04T12:46:46.029Z,38.50
2018-06-04T12:49:14.461Z,38.50
2018-06-04T12:51:42.917Z,38.00
2018-06-04T12:54:11.397Z,38.40
2018-06-04T12:56:39.845Z,38.00
2018-06-04T12:59:08.245Z,37.60
2018-06-04T13:01:36.725Z,37.20
2018-06-04T13:04:05.170Z,37.30
2018-06-04T13:06:33.597Z,36.80
2018-06-04T13:09:02.072Z,36.40
2018-06-04T13:11:30.610Z,36.10
2018-06-04T13:13:59.032Z,36.00
2018-06-04T13:16:27.517Z,34.40
2018-06-04T13:21:25.147Z,33.20
2018-06-04T13:26:21.787Z,32.50
2018-06-04T13:28:50.236Z,32.40
2018-06-04T13:31:18.708Z,31.90
2018-06-04T13:33:47.141Z,31.90
2018-06-04T13:36:15.604Z,32.00
2018-06-04T13:38:45.022Z,31.70
2018-06-04T13:41:13.477Z,31.30
2018-06-04T13:46:10.106Z,31.00
2018-06-04T13:48:38.550Z,31.10
2018-06-04T13:51:07.052Z,31.30
2018-06-04T13:53:35.492Z,31.00
2018-06-04T13:56:03.969Z,30.60
2018-06-04T14:01:00.493Z,29.80
2018-06-04T14:03:28.918Z,29.50
2018-06-04T14:05:57.320Z,29.30
2018-06-04T14:08:25.761Z,29.30
2018-06-04T14:10:54.668Z,29.60
2018-06-04T14:13:23.871Z,29.70
2018-06-04T14:15:52.345Z,30.00
2018-06-04T14:18:20.745Z,30.00
2018-06-04T14:20:49.194Z,30.10
2018-06-04T14:23:17.663Z,29.90
2018-06-04T14:25:46.285Z,29.60
2018-06-04T14:28:14.749Z,29.60
2018-06-04T14:30:43.252Z,29.60
2018-06-04T14:33:11.697Z,29.60
2018-06-04T14:35:40.131Z,29.40
2018-06-04T14:38:08.873Z,29.30
2018-06-04T14:40:37.344Z,29.40
2018-06-04T14:43:05.823Z,29.20
2018-06-04T14:45:34.316Z,29.20
2018-06-04T14:48:02.724Z,29.20
2018-06-04T14:50:31.163Z,29.10
2018-06-04T14:55:27.715Z,28.90
2018-06-04T14:57:56.172Z,28.90
2018-06-04T15:00:24.675Z,29.10
2018-06-04T15:02:53.123Z,29.00
2018-06-04T15:05:21.552Z,28.90
2018-06-04T15:07:50.100Z,28.90
2018-06-04T15:10:18.535Z,29.00
2018-06-04T15:12:46.947Z,29.00
2018-06-04T15:15:15.403Z,28.80
2018-06-04T15:20:12.125Z,28.60
2018-06-04T15:22:40.615Z,28.60
2018-06-04T15:25:09.062Z,28.70
2018-06-04T15:27:37.720Z,28.70
2018-06-04T15:30:06.212Z,28.50
2018-06-04T15:35:02.838Z,28.20
2018-06-04T15:37:31.343Z,28.10
2018-06-04T15:39:59.800Z,28.00
2018-06-04T15:42:28.229Z,28.10
2018-06-04T15:49:53.004Z,28.00
2018-06-04T15:52:21.466Z,28.10
2018-06-04T15:54:49.916Z,28.20
2018-06-04T15:57:18.330Z,28.20
2018-06-04T15:59:46.847Z,28.20
2018-06-04T16:04:43.431Z,28.10
2018-06-04T16:07:11.853Z,28.10
2018-06-04T16:09:40.257Z,28.10
2018-06-04T16:17:05.085Z,28.30
2018-06-04T16:19:33.536Z,28.40
2018-06-04T16:22:02.020Z,28.40
2018-06-04T16:24:30.429Z,28.30
2018-06-04T16:26:58.856Z,28.10
2018-06-04T16:29:27.530Z,28.10
2018-06-04T16:34:24.069Z,28.00
2018-06-04T16:36:52.515Z,27.90
2018-06-04T16:39:20.941Z,27.90
2018-06-04T16:41:49.362Z,27.90
2018-06-04T16:46:46.136Z,27.90
2018-06-04T16:49:14.556Z,27.90
2018-06-04T16:51:43.098Z,28.00
2018-06-04T16:54:11.679Z,28.10
2018-06-04T16:59:08.311Z,28.10
2018-06-04T17:01:36.720Z,28.20
2018-06-04T17:06:33.472Z,28.10
2018-06-04T17:09:01.955Z,28.00
2018-06-04T17:11:30.469Z,28.00
2018-06-04T17:18:55.240Z,27.70
2018-06-04T17:21:23.796Z,27.70
2018-06-04T17:28:48.713Z,27.40
2018-06-04T17:31:17.314Z,27.30
2018-06-04T17:33:45.769Z,27.20
2018-06-04T17:36:14.268Z,27.20
2018-06-04T17:38:42.738Z,27.20
2018-06-04T17:41:11.142Z,27.10
2018-06-04T17:43:39.625Z,27.00
2018-06-04T17:46:08.054Z,27.00
2018-06-04T17:51:04.817Z,26.90
2018-06-04T17:56:01.395Z,26.80
2018-06-04T17:58:30.100Z,26.80
2018-06-04T18:00:58.533Z,26.70
2018-06-04T18:03:27.014Z,26.70
2018-06-04T18:05:55.471Z,26.70
2018-06-04T18:08:23.882Z,26.60
2018-06-04T18:10:52.760Z,26.60
2018-06-04T18:13:21.182Z,26.50
2018-06-04T18:15:50.234Z,26.50
2018-06-04T18:18:18.649Z,26.40
2018-06-04T18:23:15.224Z,26.30
2018-06-04T18:25:43.647Z,26.30
2018-06-04T18:28:12.072Z,26.10
2018-06-04T18:30:40.520Z,26.10
2018-06-04T18:33:09.085Z,26.00
2018-06-04T18:38:05.684Z,25.90
2018-06-04T18:40:34.099Z,25.80
2018-06-04T18:43:02.549Z,25.80
2018-06-04T18:45:30.964Z,25.70
2018-06-04T18:47:59.445Z,25.60
2018-06-04T18:50:27.956Z,25.60
2018-06-04T18:52:56.384Z,25.50
2018-06-04T18:55:24.784Z,25.60
2018-06-04T18:57:53.292Z,25.50
2018-06-04T19:00:21.769Z,25.40
2018-06-04T19:02:50.281Z,25.40
2018-06-04T19:07:46.862Z,25.30
2018-06-04T19:10:15.288Z,25.30
2018-06-04T19:12:43.946Z,25.20
2018-06-04T19:15:12.407Z,25.10
2018-06-04T19:17:40.860Z,25.10
2018-06-04T19:20:09.322Z,25.00
2018-06-04T19:22:37.770Z,25.00
2018-06-04T19:27:34.400Z,24.90
2018-06-04T19:30:03.116Z,24.90
2018-06-04T19:34:59.836Z,24.90
2018-06-04T19:37:28.272Z,24.90
2018-06-04T19:42:24.833Z,24.60
2018-06-04T19:47:21.709Z,24.50
2018-06-04T19:52:18.280Z,24.50
2018-06-04T19:54:46.695Z,24.50
2018-06-04T19:57:15.142Z,24.40
2018-06-04T19:59:43.653Z,24.40
2018-06-04T20:02:12.247Z,24.40
2018-06-04T20:04:40.689Z,24.30
2018-06-04T20:07:09.157Z,24.30
2018-06-04T20:09:38.102Z,24.20
2018-06-04T20:12:06.589Z,24.20
2018-06-04T20:14:35.032Z,24.10
2018-06-04T20:17:03.469Z,24.00
2018-06-04T20:19:32.057Z,24.00
2018-06-04T20:22:01.388Z,23.90
2018-06-04T20:24:29.844Z,23.90
2018-06-04T20:26:58.329Z,23.80
2018-06-04T20:29:26.867Z,23.80
2018-06-04T20:31:55.398Z,23.70
2018-06-04T20:34:23.841Z,23.80
2018-06-04T20:36:52.657Z,23.70
2018-06-04T20:39:21.128Z,23.60
2018-06-04T20:41:49.583Z,23.60
2018-06-04T20:44:18.038Z,23.60
2018-06-04T20:46:46.494Z,23.50
2018-06-04T20:51:43.125Z,23.40
2018-06-04T20:54:12.589Z,23.40
2018-06-04T20:56:41.065Z,23.40
2018-06-04T20:59:09.553Z,23.30
2018-06-04T21:01:37.993Z,23.30
2018-06-04T21:04:06.473Z,23.30
2018-06-04T21:06:34.924Z,23.30
2018-06-04T21:09:03.459Z,23.30
2018-06-04T21:11:31.968Z,23.30
2018-06-04T21:16:28.641Z,23.30
2018-06-04T21:18:57.141Z,23.30
2018-06-04T21:21:25.736Z,23.30
2018-06-04T21:23:54.186Z,23.40
2018-06-04T21:26:22.700Z,23.30
2018-06-04T21:28:51.249Z,23.30
2018-06-04T21:33:47.900Z,23.30
2018-06-04T21:36:16.317Z,23.20
2018-06-04T21:38:45.101Z,23.30
2018-06-04T21:41:13.593Z,23.20
2018-06-04T21:46:10.160Z,23.10
2018-06-04T21:51:11.015Z,23.10
2018-06-04T21:56:07.572Z,23.00
2018-06-04T22:03:32.312Z,23.00
2018-06-04T22:06:00.736Z,22.90
2018-06-04T22:08:29.204Z,22.80
2018-06-04T22:10:57.697Z,22.80
2018-06-04T22:13:26.111Z,22.70
2018-06-04T22:15:54.552Z,22.70
2018-06-04T22:20:51.139Z,22.70
2018-06-04T22:23:19.552Z,22.60
2018-06-04T22:25:48.013Z,22.60
2018-06-04T22:28:16.527Z,22.60
2018-06-04T22:30:44.932Z,22.70
2018-06-04T22:35:41.580Z,22.60
2018-06-04T22:38:10.060Z,22.60
2018-06-04T22:40:38.688Z,22.60
2018-06-04T22:45:35.228Z,22.60
2018-06-04T22:48:03.656Z,22.50
2018-06-04T22:50:32.092Z,22.50
2018-06-04T22:53:00.513Z,22.60
2018-06-04T22:55:28.983Z,22.50
2018-06-04T23:00:32.927Z,22.40
2018-06-04T23:03:01.696Z,22.50
2018-06-04T23:05:30.198Z,22.50
2018-06-04T23:07:58.765Z,22.50
2018-06-04T23:10:27.224Z,22.40
2018-06-04T23:12:55.655Z,22.40
2018-06-04T23:15:24.176Z,22.30
2018-06-04T23:17:52.577Z,22.40
2018-06-04T23:20:20.988Z,22.30
2018-06-04T23:22:49.471Z,22.30
2018-06-04T23:25:17.885Z,22.20
2018-06-04T23:27:46.362Z,22.10
2018-06-04T23:32:42.913Z,21.90
2018-06-04T23:37:39.513Z,21.70
2018-06-04T23:40:07.968Z,21.80
2018-06-04T23:42:36.630Z,21.70
2018-06-04T23:45:05.126Z,21.70
2018-06-04T23:47:33.559Z,21.60
2018-06-04T23:50:01.978Z,21.50
2018-06-04T23:52:30.678Z,21.50
2018-06-04T23:54:59.176Z,21.40
2018-06-04T23:57:27.581Z,21.40
2018-06-04T23:59:56.029Z,21.30
